createdAt,value
2024-01-28T00:04:50.838Z,103098.66
2024-01-28T00:09:53.429Z,103102.34
2024-01-28T00:14:56.007Z,103098.44
2024-01-28T00:19:58.607Z,103101.34
2024-01-28T00:25:01.258Z,103105.16
2024-01-28T00:30:05.655Z,103105.91
2024-01-28T00:35:09.412Z,103108.63
2024-01-28T00:40:12.446Z,103104.69
2024-01-28T00:45:15.148Z,103091.72
2024-01-28T00:50:17.993Z,103094.75
2024-01-28T00:55:20.749Z,103098.88
2024-01-28T01:00:23.414Z,103105.28
2024-01-28T01:05:26.032Z,103108.28
2024-01-28T01:10:28.634Z,103112.72
2024-01-28T01:15:31.243Z,103118.31
2024-01-28T01:20:34.595Z,103108.06
2024-01-28T01:25:37.270Z,103110.97
2024-01-28T01:30:40.856Z,103108.78
2024-01-28T01:35:43.581Z,103111.50
2024-01-28T01:40:46.209Z,103104.50
2024-01-28T01:45:49.488Z,103102.66
2024-01-28T01:50:52.691Z,103099.00
2024-01-28T01:55:55.543Z,103104.28
2024-01-28T02:00:59.591Z,103106.78
2024-01-28T02:06:02.416Z,103116.91
2024-01-28T02:11:07.068Z,103111.59
2024-01-28T02:16:09.688Z,103112.53
2024-01-28T02:21:12.509Z,103109.69
2024-01-28T02:26:15.390Z,103103.91
2024-01-28T02:31:18.102Z,103113.81
2024-01-28T02:36:20.735Z,103109.69
2024-01-28T02:41:23.375Z,103105.41
2024-01-28T02:46:25.985Z,103109.53
2024-01-28T02:51:28.736Z,103114.94
2024-01-28T02:56:31.321Z,103113.50
2024-01-28T03:01:34.122Z,103112.88
2024-01-28T03:06:37.446Z,103111.31
2024-01-28T03:11:40.706Z,103104.03
2024-01-28T03:16:43.315Z,103099.69
2024-01-28T03:21:46.025Z,103107.44
2024-01-28T03:26:48.661Z,103107.69
2024-01-28T03:31:51.409Z,103104.28
2024-01-28T03:36:54.001Z,103092.69
2024-01-28T03:41:56.657Z,103088.19
2024-01-28T03:46:59.316Z,103084.31
2024-01-28T03:52:02.000Z,103085.03
2024-01-28T03:57:04.961Z,103085.69
2024-01-28T04:02:08.869Z,103084.81
2024-01-28T04:07:15.059Z,103088.00
2024-01-28T04:12:17.740Z,103096.75
2024-01-28T04:17:20.393Z,103092.41
2024-01-28T04:22:23.031Z,103083.97
2024-01-28T04:27:25.669Z,103092.00
2024-01-28T04:32:28.407Z,103094.03
2024-01-28T04:37:31.407Z,103114.38
2024-01-28T04:42:34.704Z,103107.50
2024-01-28T04:47:38.998Z,103105.22
2024-01-28T04:52:41.664Z,103115.28
2024-01-28T04:57:44.433Z,103109.31
2024-01-28T05:02:47.429Z,103108.88
2024-01-28T05:07:50.922Z,103106.84
2024-01-28T05:12:53.509Z,103108.88
2024-01-28T05:17:56.430Z,103101.84
2024-01-28T05:23:00.916Z,103111.72
2024-01-28T05:28:04.144Z,103116.75
2024-01-28T05:33:07.009Z,103115.84
2024-01-28T05:38:09.739Z,103117.16
2024-01-28T05:43:12.349Z,103123.13
2024-01-28T05:48:15.136Z,103139.81
2024-01-28T05:53:17.882Z,103143.69
2024-01-28T05:58:22.928Z,103141.00
2024-01-28T06:03:25.544Z,103148.53
2024-01-28T06:08:29.334Z,103146.00
2024-01-28T06:13:31.947Z,103152.19
2024-01-28T06:18:36.854Z,103136.66
2024-01-28T06:23:39.695Z,103129.59
2024-01-28T06:28:42.357Z,103125.72
2024-01-28T06:33:45.165Z,103119.75
2024-01-28T06:38:48.517Z,103135.28
2024-01-28T06:43:51.165Z,103128.19
2024-01-28T06:48:54.101Z,103136.88
2024-01-28T06:53:58.818Z,103149.00
2024-01-28T06:59:01.787Z,103149.22
2024-01-28T07:04:04.591Z,103149.91
2024-01-28T07:09:09.158Z,103141.47
2024-01-28T07:14:11.896Z,103153.56
2024-01-28T07:19:15.098Z,103155.13
2024-01-28T07:24:17.850Z,103157.41
2024-01-28T07:29:20.516Z,103168.84
2024-01-28T07:34:24.785Z,103154.59
2024-01-28T07:39:27.789Z,103154.66
2024-01-28T07:44:30.455Z,103162.53
2024-01-28T07:49:33.240Z,103156.47
2024-01-28T07:54:36.440Z,103151.41
2024-01-28T07:59:39.051Z,103152.13
2024-01-28T08:04:42.260Z,103142.09
2024-01-28T08:09:44.970Z,103155.47
2024-01-28T08:14:49.044Z,103162.31
2024-01-28T08:19:52.971Z,103151.13
2024-01-28T08:24:55.970Z,103160.75
2024-01-28T08:29:59.155Z,103160.91
2024-01-28T08:35:01.797Z,103161.28
2024-01-28T08:40:08.549Z,103161.88
2024-01-28T08:45:11.184Z,103158.84
2024-01-28T08:50:13.742Z,103161.91
2024-01-28T08:55:16.409Z,103169.59
2024-01-28T09:00:19.566Z,103159.09
2024-01-28T09:05:22.301Z,103157.19
2024-01-28T09:10:24.974Z,103158.94
2024-01-28T09:15:27.674Z,103144.63
2024-01-28T09:20:30.447Z,103133.59
2024-01-28T09:25:34.953Z,103147.97
2024-01-28T09:30:38.021Z,103156.50
2024-01-28T09:35:40.989Z,103170.69
2024-01-28T09:40:43.795Z,103168.97
2024-01-28T09:45:46.467Z,103161.84
2024-01-28T09:50:49.511Z,103155.53
2024-01-28T09:55:52.234Z,103159.91
2024-01-28T10:00:55.741Z,103165.53
2024-01-28T10:05:58.351Z,103169.53
2024-01-28T10:11:02.472Z,103173.41
2024-01-28T10:16:05.634Z,103175.09
2024-01-28T10:21:08.611Z,103172.47
2024-01-28T10:26:11.328Z,103157.28
2024-01-28T10:31:13.916Z,103154.97
2024-01-28T10:36:18.213Z,103162.16
2024-01-28T10:41:20.941Z,103138.38
2024-01-28T10:46:35.496Z,103139.22
2024-01-28T10:51:40.272Z,103141.28
2024-01-28T10:56:44.870Z,103131.13
2024-01-28T11:01:49.267Z,103125.78
2024-01-28T11:06:52.012Z,103110.84
2024-01-28T11:11:54.652Z,103116.69
2024-01-28T11:16:57.836Z,103091.69
2024-01-28T11:22:03.844Z,103103.22
2024-01-28T11:27:06.453Z,103092.78
2024-01-28T11:32:09.237Z,103091.44
2024-01-28T11:37:15.732Z,103094.16
2024-01-28T11:42:18.482Z,103088.00
2024-01-28T11:47:21.198Z,103074.06
2024-01-28T11:52:25.110Z,103066.41
2024-01-28T11:57:27.785Z,103052.09
2024-01-28T12:02:30.900Z,103045.63
2024-01-28T12:07:34.971Z,103049.13
2024-01-28T12:12:38.874Z,103046.69
2024-01-28T12:17:43.568Z,103051.31
2024-01-28T12:22:46.335Z,103051.22
2024-01-28T12:27:51.139Z,103045.09
2024-01-28T12:32:53.797Z,103037.25
2024-01-28T12:37:56.522Z,103034.09
2024-01-28T12:42:59.146Z,103038.91
2024-01-28T12:48:01.877Z,103028.84
2024-01-28T12:53:05.294Z,103027.59
2024-01-28T12:58:08.163Z,103018.84
2024-01-28T13:03:11.001Z,103002.41
2024-01-28T13:08:13.794Z,102989.03
2024-01-28T13:13:16.534Z,102983.28
2024-01-28T13:18:29.516Z,102977.25
2024-01-28T13:23:36.652Z,102985.84
2024-01-28T13:28:39.386Z,102966.41
2024-01-28T13:33:42.063Z,102956.78
2024-01-28T13:38:44.750Z,102941.69
2024-01-28T13:43:47.371Z,102945.19
2024-01-28T13:48:50.146Z,102949.56
2024-01-28T13:53:52.800Z,102949.72
2024-01-28T13:58:56.322Z,102933.28
2024-01-28T14:03:59.128Z,102922.41
2024-01-28T14:09:01.964Z,102922.44
2024-01-28T14:14:04.615Z,102921.66
2024-01-28T14:19:07.271Z,102910.97
2024-01-28T14:24:10.069Z,102911.28
2024-01-28T14:29:14.048Z,102902.38
2024-01-28T14:34:16.727Z,102908.31
2024-01-28T14:39:19.552Z,102906.22
2024-01-28T14:44:22.406Z,102902.41
2024-01-28T14:49:25.528Z,102900.75
2024-01-28T14:54:28.261Z,102896.47
2024-01-28T14:59:30.922Z,102897.84
2024-01-28T15:04:34.175Z,102899.34
2024-01-28T15:09:36.885Z,102904.44
2024-01-28T15:14:39.489Z,102900.78
2024-01-28T15:19:42.411Z,102894.59
2024-01-28T15:24:45.184Z,102901.13
2024-01-28T15:29:49.688Z,102897.06
2024-01-28T15:34:52.306Z,102892.63
2024-01-28T15:39:55.325Z,102889.81
2024-01-28T15:44:58.114Z,102899.22
2024-01-28T15:50:00.966Z,102904.34
2024-01-28T15:55:04.095Z,102907.50
2024-01-28T16:00:08.763Z,102897.59
2024-01-28T16:05:12.179Z,102906.69
2024-01-28T16:10:15.062Z,102904.97
2024-01-28T16:15:17.855Z,102905.00
2024-01-28T16:20:20.766Z,102905.94
2024-01-28T16:25:23.713Z,102903.59
2024-01-28T16:30:27.439Z,102909.75
2024-01-28T16:35:30.192Z,102903.56
2024-01-28T16:40:32.959Z,102898.09
2024-01-28T16:45:35.566Z,102889.00
2024-01-28T16:50:38.223Z,102904.56
2024-01-28T16:55:40.847Z,102892.91
2024-01-28T17:00:43.692Z,102899.91
2024-01-28T17:05:46.695Z,102896.38
2024-01-28T17:10:49.371Z,102893.44
2024-01-28T17:15:52.137Z,102898.66
2024-01-28T17:20:56.132Z,102902.81
2024-01-28T17:26:00.409Z,102897.88
2024-01-28T17:31:03.070Z,102895.41
2024-01-28T17:36:05.913Z,102892.66
2024-01-28T17:41:08.648Z,102884.03
2024-01-28T17:46:11.574Z,102881.13
2024-01-28T17:51:14.244Z,102889.41
2024-01-28T17:56:16.933Z,102887.19
2024-01-28T18:01:20.101Z,102882.59
2024-01-28T18:06:22.924Z,102878.31
2024-01-28T18:11:26.138Z,102872.63
2024-01-28T18:16:29.038Z,102881.00
2024-01-28T18:21:32.081Z,102882.75
2024-01-28T18:26:34.932Z,102873.69
2024-01-28T18:31:41.248Z,102864.44
2024-01-28T18:36:43.964Z,102869.28
2024-01-28T18:41:46.669Z,102868.63
2024-01-28T18:46:49.335Z,102872.72
2024-01-28T18:51:52.032Z,102875.38
2024-01-28T18:56:54.774Z,102880.53
2024-01-28T19:01:57.500Z,102863.81
2024-01-28T19:07:00.222Z,102847.47
2024-01-28T19:12:04.585Z,102834.75
2024-01-28T19:17:07.292Z,102844.75
2024-01-28T19:22:10.180Z,102850.38
2024-01-28T19:27:12.845Z,102842.59
2024-01-28T19:32:15.476Z,102829.94
2024-01-28T19:37:18.842Z,102828.25
2024-01-28T19:42:21.950Z,102823.53
2024-01-28T19:47:24.598Z,102825.31
2024-01-28T19:52:27.284Z,102822.00
2024-01-28T19:57:29.990Z,102816.06
2024-01-28T20:02:32.604Z,102802.09
2024-01-28T20:07:35.329Z,102808.25
2024-01-28T20:12:40.176Z,102784.53
2024-01-28T20:17:43.138Z,102791.31
2024-01-28T20:22:46.818Z,102794.22
2024-01-28T20:27:49.495Z,102794.09
2024-01-28T20:32:52.706Z,102793.84
2024-01-28T20:37:55.371Z,102797.50
2024-01-28T20:42:58.126Z,102787.81
2024-01-28T20:48:00.792Z,102791.44
2024-01-28T20:53:03.604Z,102805.50
